sensor_id;sensor_type;location;lat;lon;timestamp;P1;durP1;ratioP1;P2;durP2;ratioP2
24681;SDS011;12802;53.390;-2.328;2022-10-16T00:01:36;7.28;;;1.73;;
24681;SDS011;12802;53.390;-2.328;2022-10-16T00:04:02;6.93;;;1.70;;
24681;SDS011;12802;53.390;-2.328;2022-10-16T00:06:29;4.07;;;1.33;;
24681;SDS011;12802;53.390;-2.328;2022-10-16T00:08:55;2.78;;;1.63;;
24681;SDS011;12802;53.390;-2.328;2022-10-16T00:11:22;7.90;;;1.55;;
24681;SDS011;12802;53.390;-2.328;2022-10-16T00:13:50;7.05;;;1.50;;
24681;SDS011;12802;53.390;-2.328;2022-10-16T00:16:19;7.57;;;1.88;;
24681;SDS011;12802;53.390;-2.328;2022-10-16T00:18:45;9.90;;;1.70;;
24681;SDS011;12802;53.390;-2.328;2022-10-16T00:21:16;9.63;;;2.42;;
24681;SDS011;12802;53.390;-2.328;2022-10-16T00:23:44;7.75;;;1.83;;
24681;SDS011;12802;53.390;-2.328;2022-10-16T00:26:11;3.75;;;1.23;;
24681;SDS011;12802;53.390;-2.328;2022-10-16T00:28:40;7.30;;;1.45;;
24681;SDS011;12802;53.390;-2.328;2022-10-16T00:31:07;8.95;;;1.98;;
24681;SDS011;12802;53.390;-2.328;2022-10-16T00:33:34;5.50;;;1.70;;
24681;SDS011;12802;53.390;-2.328;2022-10-16T00:36:01;4.55;;;1.65;;
24681;SDS011;12802;53.390;-2.328;2022-10-16T00:38:29;6.07;;;2.17;;
24681;SDS011;12802;53.390;-2.328;2022-10-16T00:40:55;7.60;;;1.90;;
24681;SDS011;12802;53.390;-2.328;2022-10-16T00:43:37;9.10;;;1.77;;
24681;SDS011;12802;53.390;-2.328;2022-10-16T00:46:07;5.93;;;2.17;;
24681;SDS011;12802;53.390;-2.328;2022-10-16T00:48:56;13.85;;;2.03;;
24681;SDS011;12802;53.390;-2.328;2022-10-16T00:51:23;3.22;;;1.10;;
24681;SDS011;12802;53.390;-2.328;2022-10-16T00:53:57;9.75;;;1.73;;
24681;SDS011;12802;53.390;-2.328;2022-10-16T00:56:24;7.68;;;1.98;;
24681;SDS011;12802;53.390;-2.328;2022-10-16T00:58:49;10.05;;;2.20;;
24681;SDS011;12802;53.390;-2.328;2022-10-16T01:01:15;5.30;;;1.60;;
24681;SDS011;12802;53.390;-2.328;2022-10-16T01:03:41;6.72;;;2.15;;
24681;SDS011;12802;53.390;-2.328;2022-10-16T01:08:34;8.00;;;2.50;;
24681;SDS011;12802;53.390;-2.328;2022-10-16T01:11:13;5.47;;;2.40;;
24681;SDS011;12802;53.390;-2.328;2022-10-16T01:13:48;7.95;;;2.33;;
24681;SDS011;12802;53.390;-2.328;2022-10-16T01:19:20;4.85;;;1.85;;
24681;SDS011;12802;53.390;-2.328;2022-10-16T01:22:01;6.70;;;2.03;;
24681;SDS011;12802;53.390;-2.328;2022-10-16T01:24:39;8.98;;;3.15;;
24681;SDS011;12802;53.390;-2.328;2022-10-16T01:27:17;2.72;;;2.03;;
24681;SDS011;12802;53.390;-2.328;2022-10-16T01:35:26;6.40;;;2.00;;
24681;SDS011;12802;53.390;-2.328;2022-10-16T01:38:06;3.70;;;1.73;;
24681;SDS011;12802;53.390;-2.328;2022-10-16T01:40:38;8.50;;;1.50;;
24681;SDS011;12802;53.390;-2.328;2022-10-16T01:43:11;2.85;;;0.93;;
24681;SDS011;12802;53.390;-2.328;2022-10-16T01:45:40;8.77;;;1.40;;
24681;SDS011;12802;53.390;-2.328;2022-10-16T01:48:09;8.35;;;1.67;;
24681;SDS011;12802;53.390;-2.328;2022-10-16T01:50:39;6.93;;;1.33;;
24681;SDS011;12802;53.390;-2.328;2022-10-16T01:53:08;1.58;;;1.02;;
24681;SDS011;12802;53.390;-2.328;2022-10-16T01:55:38;5.95;;;1.45;;
24681;SDS011;12802;53.390;-2.328;2022-10-16T01:58:10;3.67;;;1.55;;
24681;SDS011;12802;53.390;-2.328;2022-10-16T02:00:39;5.72;;;2.13;;
24681;SDS011;12802;53.390;-2.328;2022-10-16T02:03:08;2.22;;;0.82;;
24681;SDS011;12802;53.390;-2.328;2022-10-16T02:08:12;5.13;;;0.90;;
24681;SDS011;12802;53.390;-2.328;2022-10-16T02:10:39;1.30;;;0.63;;
24681;SDS011;12802;53.390;-2.328;2022-10-16T02:13:09;3.03;;;1.17;;
24681;SDS011;12802;53.390;-2.328;2022-10-16T02:15:37;2.17;;;0.77;;
24681;SDS011;12802;53.390;-2.328;2022-10-16T02:18:04;4.38;;;1.15;;
24681;SDS011;12802;53.390;-2.328;2022-10-16T02:20:32;4.88;;;1.80;;
24681;SDS011;12802;53.390;-2.328;2022-10-16T02:23:04;6.43;;;1.42;;
24681;SDS011;12802;53.390;-2.328;2022-10-16T02:25:35;3.42;;;1.35;;
24681;SDS011;12802;53.390;-2.328;2022-10-16T02:28:06;4.88;;;1.05;;
24681;SDS011;12802;53.390;-2.328;2022-10-16T02:30:58;2.17;;;1.00;;
24681;SDS011;12802;53.390;-2.328;2022-10-16T02:33:27;2.97;;;1.08;;
24681;SDS011;12802;53.390;-2.328;2022-10-16T02:35:55;4.82;;;1.83;;
24681;SDS011;12802;53.390;-2.328;2022-10-16T02:38:23;5.60;;;1.55;;
24681;SDS011;12802;53.390;-2.328;2022-10-16T02:40:50;2.20;;;1.30;;
24681;SDS011;12802;53.390;-2.328;2022-10-16T02:43:17;1.88;;;0.95;;
24681;SDS011;12802;53.390;-2.328;2022-10-16T02:45:43;2.63;;;0.88;;
24681;SDS011;12802;53.390;-2.328;2022-10-16T02:48:09;2.05;;;0.77;;
24681;SDS011;12802;53.390;-2.328;2022-10-16T02:50:35;3.72;;;0.90;;
24681;SDS011;12802;53.390;-2.328;2022-10-16T02:53:01;3.25;;;1.13;;
24681;SDS011;12802;53.390;-2.328;2022-10-16T02:55:27;4.85;;;1.15;;
24681;SDS011;12802;53.390;-2.328;2022-10-16T02:57:53;4.03;;;0.95;;
24681;SDS011;12802;53.390;-2.328;2022-10-16T03:00:19;2.92;;;1.25;;
24681;SDS011;12802;53.390;-2.328;2022-10-16T03:02:46;2.17;;;0.93;;
24681;SDS011;12802;53.390;-2.328;2022-10-16T03:05:12;0.90;;;0.68;;
24681;SDS011;12802;53.390;-2.328;2022-10-16T03:07:38;2.97;;;1.10;;
24681;SDS011;12802;53.390;-2.328;2022-10-16T03:10:04;3.10;;;1.10;;
24681;SDS011;12802;53.390;-2.328;2022-10-16T03:12:30;2.20;;;0.98;;
24681;SDS011;12802;53.390;-2.328;2022-10-16T03:14:56;2.00;;;0.73;;
24681;SDS011;12802;53.390;-2.328;2022-10-16T03:17:22;4.10;;;1.05;;
24681;SDS011;12802;53.390;-2.328;2022-10-16T03:19:49;4.65;;;1.00;;
24681;SDS011;12802;53.390;-2.328;2022-10-16T03:22:15;5.20;;;0.75;;
24681;SDS011;12802;53.390;-2.328;2022-10-16T03:24:41;3.53;;;1.20;;
24681;SDS011;12802;53.390;-2.328;2022-10-16T03:27:07;8.30;;;1.33;;
24681;SDS011;12802;53.390;-2.328;2022-10-16T03:29:33;4.85;;;1.08;;
24681;SDS011;12802;53.390;-2.328;2022-10-16T03:31:59;2.63;;;1.10;;
24681;SDS011;12802;53.390;-2.328;2022-10-16T03:34:26;0.77;;;0.57;;
24681;SDS011;12802;53.390;-2.328;2022-10-16T03:36:53;0.88;;;0.50;;
24681;SDS011;12802;53.390;-2.328;2022-10-16T03:39:19;2.95;;;0.98;;
24681;SDS011;12802;53.390;-2.328;2022-10-16T03:41:45;1.92;;;0.73;;
24681;SDS011;12802;53.390;-2.328;2022-10-16T03:44:11;3.97;;;1.13;;
24681;SDS011;12802;53.390;-2.328;2022-10-16T03:46:37;5.40;;;1.20;;
24681;SDS011;12802;53.390;-2.328;2022-10-16T03:49:03;5.00;;;1.08;;
24681;SDS011;12802;53.390;-2.328;2022-10-16T03:51:29;3.42;;;1.20;;
24681;SDS011;12802;53.390;-2.328;2022-10-16T03:53:55;1.55;;;0.82;;
24681;SDS011;12802;53.390;-2.328;2022-10-16T03:56:21;3.22;;;1.08;;
24681;SDS011;12802;53.390;-2.328;2022-10-16T03:58:46;4.22;;;1.13;;
24681;SDS011;12802;53.390;-2.328;2022-10-16T04:01:12;5.60;;;1.38;;
24681;SDS011;12802;53.390;-2.328;2022-10-16T04:03:38;6.88;;;0.90;;
24681;SDS011;12802;53.390;-2.328;2022-10-16T04:06:04;5.15;;;1.02;;
24681;SDS011;12802;53.390;-2.328;2022-10-16T04:08:29;3.83;;;1.15;;
24681;SDS011;12802;53.390;-2.328;2022-10-16T04:10:55;3.90;;;0.82;;
24681;SDS011;12802;53.390;-2.328;2022-10-16T04:13:21;4.68;;;1.73;;
24681;SDS011;12802;53.390;-2.328;2022-10-16T04:15:47;4.22;;;1.33;;
24681;SDS011;12802;53.390;-2.328;2022-10-16T04:18:13;4.57;;;0.75;;
24681;SDS011;12802;53.390;-2.328;2022-10-16T04:20:38;4.20;;;1.30;;
24681;SDS011;12802;53.390;-2.328;2022-10-16T04:23:04;7.03;;;1.60;;
24681;SDS011;12802;53.390;-2.328;2022-10-16T04:25:30;9.60;;;1.67;;
24681;SDS011;12802;53.390;-2.328;2022-10-16T04:27:56;3.35;;;1.23;;
24681;SDS011;12802;53.390;-2.328;2022-10-16T04:30:22;2.75;;;1.42;;
24681;SDS011;12802;53.390;-2.328;2022-10-16T04:32:51;3.25;;;1.20;;
24681;SDS011;12802;53.390;-2.328;2022-10-16T04:35:17;2.17;;;1.33;;
24681;SDS011;12802;53.390;-2.328;2022-10-16T04:37:44;5.78;;;1.45;;
24681;SDS011;12802;53.390;-2.328;2022-10-16T04:40:10;4.45;;;1.40;;
24681;SDS011;12802;53.390;-2.328;2022-10-16T04:42:37;3.70;;;1.38;;
24681;SDS011;12802;53.390;-2.328;2022-10-16T04:45:04;4.70;;;1.88;;
24681;SDS011;12802;53.390;-2.328;2022-10-16T04:47:30;3.30;;;1.27;;
24681;SDS011;12802;53.390;-2.328;2022-10-16T04:49:56;12.07;;;1.90;;
24681;SDS011;12802;53.390;-2.328;2022-10-16T04:52:22;3.38;;;1.42;;
24681;SDS011;12802;53.390;-2.328;2022-10-16T04:54:50;2.17;;;1.35;;
24681;SDS011;12802;53.390;-2.328;2022-10-16T04:57:16;5.95;;;1.15;;
24681;SDS011;12802;53.390;-2.328;2022-10-16T04:59:42;5.57;;;1.40;;
24681;SDS011;12802;53.390;-2.328;2022-10-16T05:02:08;2.65;;;1.13;;
24681;SDS011;12802;53.390;-2.328;2022-10-16T05:04:34;4.80;;;1.80;;
24681;SDS011;12802;53.390;-2.328;2022-10-16T05:06:59;6.43;;;1.08;;
24681;SDS011;12802;53.390;-2.328;2022-10-16T05:09:25;3.13;;;0.90;;
24681;SDS011;12802;53.390;-2.328;2022-10-16T05:11:51;6.68;;;1.50;;
24681;SDS011;12802;53.390;-2.328;2022-10-16T05:14:17;2.35;;;0.98;;
24681;SDS011;12802;53.390;-2.328;2022-10-16T05:16:43;6.18;;;1.23;;
24681;SDS011;12802;53.390;-2.328;2022-10-16T05:19:09;1.88;;;1.13;;
24681;SDS011;12802;53.390;-2.328;2022-10-16T05:21:35;4.68;;;0.77;;
24681;SDS011;12802;53.390;-2.328;2022-10-16T05:24:01;2.42;;;0.85;;
24681;SDS011;12802;53.390;-2.328;2022-10-16T05:26:26;5.20;;;1.30;;
24681;SDS011;12802;53.390;-2.328;2022-10-16T05:28:52;1.60;;;0.98;;
24681;SDS011;12802;53.390;-2.328;2022-10-16T05:31:18;4.70;;;0.75;;
24681;SDS011;12802;53.390;-2.328;2022-10-16T05:33:44;5.15;;;1.40;;
24681;SDS011;12802;53.390;-2.328;2022-10-16T05:36:10;5.50;;;1.38;;
24681;SDS011;12802;53.390;-2.328;2022-10-16T05:38:36;4.47;;;0.85;;
24681;SDS011;12802;53.390;-2.328;2022-10-16T05:41:03;2.47;;;0.90;;
24681;SDS011;12802;53.390;-2.328;2022-10-16T05:43:30;2.95;;;0.68;;
24681;SDS011;12802;53.390;-2.328;2022-10-16T05:45:57;3.42;;;0.85;;
24681;SDS011;12802;53.390;-2.328;2022-10-16T05:48:28;1.50;;;0.57;;
24681;SDS011;12802;53.390;-2.328;2022-10-16T05:51:01;2.40;;;1.02;;
24681;SDS011;12802;53.390;-2.328;2022-10-16T05:53:30;5.15;;;0.85;;
24681;SDS011;12802;53.390;-2.328;2022-10-16T05:55:57;2.80;;;0.70;;
24681;SDS011;12802;53.390;-2.328;2022-10-16T05:58:24;2.88;;;0.98;;
24681;SDS011;12802;53.390;-2.328;2022-10-16T06:00:54;2.10;;;0.65;;
24681;SDS011;12802;53.390;-2.328;2022-10-16T06:03:27;3.60;;;0.82;;
24681;SDS011;12802;53.390;-2.328;2022-10-16T06:05:53;1.27;;;0.70;;
24681;SDS011;12802;53.390;-2.328;2022-10-16T06:08:20;4.90;;;1.08;;
24681;SDS011;12802;53.390;-2.328;2022-10-16T06:10:48;1.20;;;0.52;;
24681;SDS011;12802;53.390;-2.328;2022-10-16T06:13:24;1.25;;;0.70;;
24681;SDS011;12802;53.390;-2.328;2022-10-16T06:15:50;2.28;;;0.60;;
24681;SDS011;12802;53.390;-2.328;2022-10-16T06:18:16;4.13;;;1.17;;
24681;SDS011;12802;53.390;-2.328;2022-10-16T06:20:42;2.78;;;0.98;;
24681;SDS011;12802;53.390;-2.328;2022-10-16T06:23:08;3.83;;;0.70;;
24681;SDS011;12802;53.390;-2.328;2022-10-16T06:25:33;1.63;;;0.80;;
24681;SDS011;12802;53.390;-2.328;2022-10-16T06:27:59;2.33;;;0.98;;
24681;SDS011;12802;53.390;-2.328;2022-10-16T06:30:25;5.75;;;0.57;;
24681;SDS011;12802;53.390;-2.328;2022-10-16T06:32:51;1.17;;;0.50;;
24681;SDS011;12802;53.390;-2.328;2022-10-16T06:35:17;6.15;;;1.35;;
24681;SDS011;12802;53.390;-2.328;2022-10-16T06:37:42;0.55;;;0.40;;
24681;SDS011;12802;53.390;-2.328;2022-10-16T06:40:08;11.52;;;0.70;;
24681;SDS011;12802;53.390;-2.328;2022-10-16T06:42:34;1.42;;;0.75;;
24681;SDS011;12802;53.390;-2.328;2022-10-16T06:45:00;0.60;;;0.45;;
24681;SDS011;12802;53.390;-2.328;2022-10-16T06:47:26;1.60;;;0.70;;
24681;SDS011;12802;53.390;-2.328;2022-10-16T06:49:53;1.52;;;0.80;;
24681;SDS011;12802;53.390;-2.328;2022-10-16T06:52:18;1.65;;;0.55;;
24681;SDS011;12802;53.390;-2.328;2022-10-16T06:54:44;1.70;;;0.77;;
24681;SDS011;12802;53.390;-2.328;2022-10-16T06:57:10;2.95;;;0.73;;
24681;SDS011;12802;53.390;-2.328;2022-10-16T06:59:36;1.02;;;0.50;;
24681;SDS011;12802;53.390;-2.328;2022-10-16T07:02:01;1.27;;;0.50;;
24681;SDS011;12802;53.390;-2.328;2022-10-16T07:04:27;9.95;;;1.02;;
24681;SDS011;12802;53.390;-2.328;2022-10-16T07:06:53;4.68;;;1.08;;
24681;SDS011;12802;53.390;-2.328;2022-10-16T07:09:19;1.77;;;0.73;;
24681;SDS011;12802;53.390;-2.328;2022-10-16T07:11:44;1.30;;;0.52;;
24681;SDS011;12802;53.390;-2.328;2022-10-16T07:14:15;4.80;;;0.60;;
24681;SDS011;12802;53.390;-2.328;2022-10-16T07:16:42;1.63;;;0.77;;
24681;SDS011;12802;53.390;-2.328;2022-10-16T07:19:08;0.85;;;0.52;;
24681;SDS011;12802;53.390;-2.328;2022-10-16T07:21:36;0.75;;;0.50;;
24681;SDS011;12802;53.390;-2.328;2022-10-16T07:24:07;1.52;;;0.77;;
24681;SDS011;12802;53.390;-2.328;2022-10-16T07:26:38;4.05;;;0.85;;
24681;SDS011;12802;53.390;-2.328;2022-10-16T07:29:11;2.67;;;0.98;;
24681;SDS011;12802;53.390;-2.328;2022-10-16T07:31:39;3.72;;;0.77;;
24681;SDS011;12802;53.390;-2.328;2022-10-16T07:34:05;1.40;;;0.80;;
24681;SDS011;12802;53.390;-2.328;2022-10-16T07:36:31;6.68;;;1.08;;
24681;SDS011;12802;53.390;-2.328;2022-10-16T07:38:57;3.90;;;0.50;;
24681;SDS011;12802;53.390;-2.328;2022-10-16T07:41:23;3.33;;;1.02;;
24681;SDS011;12802;53.390;-2.328;2022-10-16T07:43:50;2.50;;;1.38;;
24681;SDS011;12802;53.390;-2.328;2022-10-16T07:46:17;2.50;;;0.68;;
24681;SDS011;12802;53.390;-2.328;2022-10-16T07:48:44;4.32;;;0.98;;
24681;SDS011;12802;53.390;-2.328;2022-10-16T07:51:13;3.05;;;0.75;;
24681;SDS011;12802;53.390;-2.328;2022-10-16T07:53:40;1.77;;;0.57;;
24681;SDS011;12802;53.390;-2.328;2022-10-16T07:56:06;3.67;;;1.00;;
24681;SDS011;12802;53.390;-2.328;2022-10-16T07:58:33;2.50;;;0.73;;
24681;SDS011;12802;53.390;-2.328;2022-10-16T08:01:05;2.67;;;0.75;;
24681;SDS011;12802;53.390;-2.328;2022-10-16T08:03:33;1.00;;;0.50;;
24681;SDS011;12802;53.390;-2.328;2022-10-16T08:05:59;6.55;;;0.85;;
24681;SDS011;12802;53.390;-2.328;2022-10-16T08:08:25;5.30;;;1.13;;
24681;SDS011;12802;53.390;-2.328;2022-10-16T08:10:51;1.15;;;0.52;;
24681;SDS011;12802;53.390;-2.328;2022-10-16T08:13:17;3.50;;;0.85;;
24681;SDS011;12802;53.390;-2.328;2022-10-16T08:15:43;0.90;;;0.45;;
24681;SDS011;12802;53.390;-2.328;2022-10-16T08:18:10;5.38;;;0.77;;
24681;SDS011;12802;53.390;-2.328;2022-10-16T08:20:38;4.55;;;0.90;;
24681;SDS011;12802;53.390;-2.328;2022-10-16T08:23:04;2.03;;;0.60;;
24681;SDS011;12802;53.390;-2.328;2022-10-16T08:25:30;2.83;;;0.98;;
24681;SDS011;12802;53.390;-2.328;2022-10-16T08:27:56;3.80;;;0.70;;
24681;SDS011;12802;53.390;-2.328;2022-10-16T08:30:23;1.42;;;0.50;;
24681;SDS011;12802;53.390;-2.328;2022-10-16T08:32:49;3.72;;;0.98;;
24681;SDS011;12802;53.390;-2.328;2022-10-16T08:35:15;3.35;;;0.75;;
24681;SDS011;12802;53.390;-2.328;2022-10-16T08:37:41;4.38;;;0.60;;
24681;SDS011;12802;53.390;-2.328;2022-10-16T08:40:29;0.98;;;0.77;;
24681;SDS011;12802;53.390;-2.328;2022-10-16T08:48:06;1.83;;;0.73;;
24681;SDS011;12802;53.390;-2.328;2022-10-16T08:50:48;8.85;;;0.70;;
24681;SDS011;12802;53.390;-2.328;2022-10-16T08:53:18;5.15;;;0.70;;
24681;SDS011;12802;53.390;-2.328;2022-10-16T08:55:50;2.38;;;0.68;;
24681;SDS011;12802;53.390;-2.328;2022-10-16T08:58:21;1.23;;;0.75;;
24681;SDS011;12802;53.390;-2.328;2022-10-16T09:00:55;1.83;;;0.50;;
24681;SDS011;12802;53.390;-2.328;2022-10-16T09:20:04;2.22;;;0.63;;
24681;SDS011;12802;53.390;-2.328;2022-10-16T09:22:39;3.25;;;0.70;;
24681;SDS011;12802;53.390;-2.328;2022-10-16T09:25:20;2.67;;;0.60;;
24681;SDS011;12802;53.390;-2.328;2022-10-16T09:27:47;3.15;;;0.65;;
24681;SDS011;12802;53.390;-2.328;2022-10-16T09:30:17;2.25;;;0.65;;
24681;SDS011;12802;53.390;-2.328;2022-10-16T09:32:46;0.80;;;0.35;;
24681;SDS011;12802;53.390;-2.328;2022-10-16T09:37:43;9.30;;;0.88;;
24681;SDS011;12802;53.390;-2.328;2022-10-16T09:40:23;4.20;;;0.82;;
24681;SDS011;12802;53.390;-2.328;2022-10-16T09:42:50;3.47;;;0.68;;
24681;SDS011;12802;53.390;-2.328;2022-10-16T09:45:31;4.97;;;0.95;;
24681;SDS011;12802;53.390;-2.328;2022-10-16T09:47:57;1.23;;;0.30;;
24681;SDS011;12802;53.390;-2.328;2022-10-16T09:50:26;6.57;;;1.02;;
24681;SDS011;12802;53.390;-2.328;2022-10-16T09:53:03;3.10;;;0.60;;
24681;SDS011;12802;53.390;-2.328;2022-10-16T09:55:49;3.33;;;0.77;;
24681;SDS011;12802;53.390;-2.328;2022-10-16T09:58:15;4.38;;;0.85;;
24681;SDS011;12802;53.390;-2.328;2022-10-16T10:00:42;2.13;;;0.68;;
24681;SDS011;12802;53.390;-2.328;2022-10-16T10:06:01;3.67;;;0.68;;
24681;SDS011;12802;53.390;-2.328;2022-10-16T10:08:41;2.33;;;0.43;;
24681;SDS011;12802;53.390;-2.328;2022-10-16T10:11:48;0.60;;;0.35;;
24681;SDS011;12802;53.390;-2.328;2022-10-16T10:14:17;2.90;;;0.47;;
24681;SDS011;12802;53.390;-2.328;2022-10-16T10:16:44;4.50;;;0.88;;
24681;SDS011;12802;53.390;-2.328;2022-10-16T10:19:20;8.10;;;1.25;;
24681;SDS011;12802;53.390;-2.328;2022-10-16T10:21:48;1.67;;;0.40;;
24681;SDS011;12802;53.390;-2.328;2022-10-16T10:24:15;5.75;;;1.30;;
24681;SDS011;12802;53.390;-2.328;2022-10-16T10:29:58;2.03;;;0.43;;
24681;SDS011;12802;53.390;-2.328;2022-10-16T10:32:35;1.35;;;0.50;;
24681;SDS011;12802;53.390;-2.328;2022-10-16T10:41:14;1.42;;;0.73;;
24681;SDS011;12802;53.390;-2.328;2022-10-16T11:03:20;2.55;;;0.68;;
24681;SDS011;12802;53.390;-2.328;2022-10-16T11:05:51;2.95;;;0.60;;
24681;SDS011;12802;53.390;-2.328;2022-10-16T11:16:21;2.45;;;0.85;;
24681;SDS011;12802;53.390;-2.328;2022-10-16T11:21:56;3.00;;;0.47;;
24681;SDS011;12802;53.390;-2.328;2022-10-16T11:30:28;3.20;;;0.73;;
24681;SDS011;12802;53.390;-2.328;2022-10-16T11:38:11;2.58;;;0.50;;
24681;SDS011;12802;53.390;-2.328;2022-10-16T11:40:46;0.88;;;0.40;;
24681;SDS011;12802;53.390;-2.328;2022-10-16T11:45:50;4.25;;;0.32;;
24681;SDS011;12802;53.390;-2.328;2022-10-16T11:51:13;1.13;;;0.43;;
24681;SDS011;12802;53.390;-2.328;2022-10-16T11:53:56;3.60;;;0.70;;
24681;SDS011;12802;53.390;-2.328;2022-10-16T11:56:30;1.63;;;0.52;;
24681;SDS011;12802;53.390;-2.328;2022-10-16T11:59:02;1.83;;;0.65;;
24681;SDS011;12802;53.390;-2.328;2022-10-16T12:01:56;4.57;;;0.65;;
24681;SDS011;12802;53.390;-2.328;2022-10-16T12:04:45;2.47;;;0.75;;
24681;SDS011;12802;53.390;-2.328;2022-10-16T12:07:20;3.05;;;0.77;;
24681;SDS011;12802;53.390;-2.328;2022-10-16T12:09:49;1.00;;;0.47;;
24681;SDS011;12802;53.390;-2.328;2022-10-16T12:15:15;0.50;;;0.20;;
24681;SDS011;12802;53.390;-2.328;2022-10-16T12:17:45;4.30;;;0.43;;
24681;SDS011;12802;53.390;-2.328;2022-10-16T12:22:40;1.85;;;0.38;;
24681;SDS011;12802;53.390;-2.328;2022-10-16T12:25:40;1.52;;;0.57;;
24681;SDS011;12802;53.390;-2.328;2022-10-16T12:30:40;9.45;;;0.73;;
24681;SDS011;12802;53.390;-2.328;2022-10-16T12:33:20;2.38;;;0.75;;
24681;SDS011;12802;53.390;-2.328;2022-10-16T12:35:51;3.03;;;0.40;;
24681;SDS011;12802;53.390;-2.328;2022-10-16T12:38:24;3.50;;;0.40;;
24681;SDS011;12802;53.390;-2.328;2022-10-16T12:41:11;1.63;;;0.43;;
24681;SDS011;12802;53.390;-2.328;2022-10-16T12:43:45;0.95;;;0.63;;
24681;SDS011;12802;53.390;-2.328;2022-10-16T12:48:39;3.08;;;0.60;;
24681;SDS011;12802;53.390;-2.328;2022-10-16T12:51:25;2.92;;;0.82;;
24681;SDS011;12802;53.390;-2.328;2022-10-16T13:00:15;1.95;;;0.40;;
24681;SDS011;12802;53.390;-2.328;2022-10-16T13:18:24;2.63;;;0.45;;
24681;SDS011;12802;53.390;-2.328;2022-10-16T13:21:32;1.83;;;0.52;;
24681;SDS011;12802;53.390;-2.328;2022-10-16T13:29:43;2.17;;;0.50;;
24681;SDS011;12802;53.390;-2.328;2022-10-16T13:32:10;1.63;;;0.73;;
24681;SDS011;12802;53.390;-2.328;2022-10-16T13:34:44;0.65;;;0.30;;
24681;SDS011;12802;53.390;-2.328;2022-10-16T13:37:21;1.60;;;0.60;;
24681;SDS011;12802;53.390;-2.328;2022-10-16T13:39:48;1.50;;;0.50;;
24681;SDS011;12802;53.390;-2.328;2022-10-16T13:42:22;3.15;;;0.50;;
24681;SDS011;12802;53.390;-2.328;2022-10-16T13:44:51;2.17;;;0.50;;
24681;SDS011;12802;53.390;-2.328;2022-10-16T13:47:19;0.63;;;0.20;;
24681;SDS011;12802;53.390;-2.328;2022-10-16T13:50:06;2.40;;;0.45;;
24681;SDS011;12802;53.390;-2.328;2022-10-16T13:55:16;3.45;;;0.30;;
24681;SDS011;12802;53.390;-2.328;2022-10-16T13:57:43;3.97;;;0.55;;
24681;SDS011;12802;53.390;-2.328;2022-10-16T14:02:52;2.85;;;0.52;;
24681;SDS011;12802;53.390;-2.328;2022-10-16T14:05:30;4.65;;;0.55;;
24681;SDS011;12802;53.390;-2.328;2022-10-16T14:07:57;1.25;;;0.30;;
24681;SDS011;12802;53.390;-2.328;2022-10-16T14:10:25;0.70;;;0.13;;
24681;SDS011;12802;53.390;-2.328;2022-10-16T14:13:03;1.48;;;0.30;;
24681;SDS011;12802;53.390;-2.328;2022-10-16T14:15:31;0.90;;;0.43;;
24681;SDS011;12802;53.390;-2.328;2022-10-16T14:17:59;3.58;;;0.35;;
24681;SDS011;12802;53.390;-2.328;2022-10-16T14:20:26;4.25;;;0.80;;
24681;SDS011;12802;53.390;-2.328;2022-10-16T14:23:16;0.40;;;0.20;;
24681;SDS011;12802;53.390;-2.328;2022-10-16T14:25:46;1.13;;;0.22;;
24681;SDS011;12802;53.390;-2.328;2022-10-16T14:28:21;2.78;;;0.50;;
24681;SDS011;12802;53.390;-2.328;2022-10-16T14:30:55;1.13;;;0.50;;
24681;SDS011;12802;53.390;-2.328;2022-10-16T14:36:02;1.53;;;0.80;;
24681;SDS011;12802;53.390;-2.328;2022-10-16T14:38:35;4.18;;;0.40;;
24681;SDS011;12802;53.390;-2.328;2022-10-16T14:41:03;1.60;;;0.55;;
24681;SDS011;12802;53.390;-2.328;2022-10-16T14:46:03;4.38;;;0.93;;
24681;SDS011;12802;53.390;-2.328;2022-10-16T14:49:00;4.25;;;0.70;;
24681;SDS011;12802;53.390;-2.328;2022-10-16T14:51:36;2.08;;;0.60;;
24681;SDS011;12802;53.390;-2.328;2022-10-16T14:54:03;3.60;;;0.60;;
24681;SDS011;12802;53.390;-2.328;2022-10-16T14:56:30;2.80;;;1.10;;
24681;SDS011;12802;53.390;-2.328;2022-10-16T14:59:12;5.30;;;0.60;;
24681;SDS011;12802;53.390;-2.328;2022-10-16T15:01:51;1.60;;;0.90;;
24681;SDS011;12802;53.390;-2.328;2022-10-16T15:04:17;2.97;;;0.90;;
24681;SDS011;12802;53.390;-2.328;2022-10-16T15:06:43;7.35;;;0.98;;
24681;SDS011;12802;53.390;-2.328;2022-10-16T15:09:09;5.95;;;1.15;;
24681;SDS011;12802;53.390;-2.328;2022-10-16T15:11:35;4.53;;;0.82;;
24681;SDS011;12802;53.390;-2.328;2022-10-16T15:14:02;1.50;;;0.82;;
24681;SDS011;12802;53.390;-2.328;2022-10-16T15:16:28;2.70;;;0.88;;
24681;SDS011;12802;53.390;-2.328;2022-10-16T15:18:55;2.17;;;1.00;;
24681;SDS011;12802;53.390;-2.328;2022-10-16T15:21:23;5.63;;;1.08;;
24681;SDS011;12802;53.390;-2.328;2022-10-16T15:23:57;2.05;;;0.80;;
24681;SDS011;12802;53.390;-2.328;2022-10-16T15:26:25;2.28;;;0.90;;
24681;SDS011;12802;53.390;-2.328;2022-10-16T15:28:52;3.13;;;0.60;;
24681;SDS011;12802;53.390;-2.328;2022-10-16T15:31:18;3.67;;;0.77;;
24681;SDS011;12802;53.390;-2.328;2022-10-16T15:33:48;1.70;;;0.57;;
24681;SDS011;12802;53.390;-2.328;2022-10-16T15:36:28;2.22;;;0.65;;
24681;SDS011;12802;53.390;-2.328;2022-10-16T15:38:54;3.10;;;0.60;;
24681;SDS011;12802;53.390;-2.328;2022-10-16T15:41:21;4.05;;;1.05;;
24681;SDS011;12802;53.390;-2.328;2022-10-16T15:43:48;2.63;;;0.57;;
24681;SDS011;12802;53.390;-2.328;2022-10-16T15:46:15;5.82;;;1.00;;
24681;SDS011;12802;53.390;-2.328;2022-10-16T15:48:46;4.63;;;1.35;;
24681;SDS011;12802;53.390;-2.328;2022-10-16T15:51:13;6.47;;;1.20;;
24681;SDS011;12802;53.390;-2.328;2022-10-16T15:53:39;2.72;;;1.00;;
24681;SDS011;12802;53.390;-2.328;2022-10-16T15:56:05;1.15;;;0.63;;
24681;SDS011;12802;53.390;-2.328;2022-10-16T15:58:33;2.20;;;0.70;;
24681;SDS011;12802;53.390;-2.328;2022-10-16T16:00:59;3.67;;;0.80;;
24681;SDS011;12802;53.390;-2.328;2022-10-16T16:03:27;6.50;;;0.93;;
24681;SDS011;12802;53.390;-2.328;2022-10-16T16:05:54;5.25;;;0.82;;
24681;SDS011;12802;53.390;-2.328;2022-10-16T16:08:20;2.17;;;1.10;;
24681;SDS011;12802;53.390;-2.328;2022-10-16T16:11:00;3.50;;;1.13;;
24681;SDS011;12802;53.390;-2.328;2022-10-16T16:13:31;3.90;;;0.90;;
24681;SDS011;12802;53.390;-2.328;2022-10-16T16:15:57;3.40;;;1.20;;
24681;SDS011;12802;53.390;-2.328;2022-10-16T16:18:23;5.57;;;1.33;;
24681;SDS011;12802;53.390;-2.328;2022-10-16T16:20:52;2.22;;;0.90;;
24681;SDS011;12802;53.390;-2.328;2022-10-16T16:23:18;6.03;;;1.33;;
24681;SDS011;12802;53.390;-2.328;2022-10-16T16:25:45;5.60;;;1.25;;
24681;SDS011;12802;53.390;-2.328;2022-10-16T16:28:26;2.55;;;1.17;;
24681;SDS011;12802;53.390;-2.328;2022-10-16T16:30:53;2.60;;;1.35;;
24681;SDS011;12802;53.390;-2.328;2022-10-16T16:33:18;5.70;;;1.27;;
24681;SDS011;12802;53.390;-2.328;2022-10-16T16:35:44;5.05;;;1.15;;
24681;SDS011;12802;53.390;-2.328;2022-10-16T16:38:10;3.97;;;1.67;;
24681;SDS011;12802;53.390;-2.328;2022-10-16T16:40:36;2.35;;;1.20;;
24681;SDS011;12802;53.390;-2.328;2022-10-16T16:43:01;7.00;;;1.90;;
24681;SDS011;12802;53.390;-2.328;2022-10-16T16:45:29;5.13;;;1.17;;
24681;SDS011;12802;53.390;-2.328;2022-10-16T16:47:54;4.07;;;1.42;;
24681;SDS011;12802;53.390;-2.328;2022-10-16T16:50:20;2.88;;;1.20;;
24681;SDS011;12802;53.390;-2.328;2022-10-16T16:52:46;4.72;;;1.63;;
24681;SDS011;12802;53.390;-2.328;2022-10-16T16:55:12;4.00;;;1.45;;
24681;SDS011;12802;53.390;-2.328;2022-10-16T16:57:38;4.40;;;1.10;;
24681;SDS011;12802;53.390;-2.328;2022-10-16T17:00:03;4.10;;;1.65;;
24681;SDS011;12802;53.390;-2.328;2022-10-16T17:02:30;4.75;;;1.80;;
24681;SDS011;12802;53.390;-2.328;2022-10-16T17:04:55;4.80;;;1.27;;
24681;SDS011;12802;53.390;-2.328;2022-10-16T17:07:22;2.78;;;1.00;;
24681;SDS011;12802;53.390;-2.328;2022-10-16T17:09:50;7.13;;;2.10;;
24681;SDS011;12802;53.390;-2.328;2022-10-16T17:12:16;7.93;;;2.20;;